Time;durP1;ratioP1;P1;durP2;ratioP2;P2;SDS_P1;SDS_P2;PMS_P1;PMS_P2;Temp;Humidity;BMP_temperature;BMP_pressure;BME280_temperature;BME280_humidity;BME280_pressure;Samples;Min_cycle;Max_cycle;Signal;HPM_P1;HPM_P2
2023/12/11 00:00:21;;;;;;;17.23;8.63;;;9.80;99.90;;;;;;4921116;28;20047;-75
2023/12/11 00:02:48;;;;;;;14.25;8.70;;;9.80;99.90;;;;;;4916479;29;20044;-75
2023/12/11 00:05:15;;;;;;;13.85;7.75;;;9.80;99.90;;;;;;4892157;28;20846;-75
2023/12/11 00:07:42;;;;;;;15.20;8.18;;;9.70;99.90;;;;;;4925688;28;20055;-74
2023/12/11 00:10:09;;;;;;;10.98;7.53;;;9.70;99.90;;;;;;4916941;28;20050;-75
2023/12/11 00:12:37;;;;;;;12.45;9.07;;;9.60;99.90;;;;;;4915807;29;20051;-74
2023/12/11 00:15:05;;;;;;;18.17;8.75;;;9.50;99.90;;;;;;4909961;28;20055;-74
2023/12/11 00:17:32;;;;;;;14.50;6.82;;;9.50;99.90;;;;;;4926778;29;20062;-75
2023/12/11 00:20:00;;;;;;;17.55;7.60;;;9.50;99.90;;;;;;4919843;28;20536;-75
2023/12/11 00:22:27;;;;;;;15.02;8.20;;;9.50;99.90;;;;;;4919752;29;20047;-74
2023/12/11 00:24:54;;;;;;;14.02;9.05;;;9.50;99.90;;;;;;4896179;28;20562;-74
2023/12/11 00:27:21;;;;;;;9.93;8.95;;;9.40;99.90;;;;;;4902955;28;20166;-73
2023/12/11 00:29:48;;;;;;;16.83;8.55;;;9.50;99.90;;;;;;4913841;29;20058;-75
2023/12/11 00:32:15;;;;;;;14.57;8.35;;;9.40;99.90;;;;;;4918823;28;20078;-75
2023/12/11 00:34:42;;;;;;;9.18;7.70;;;9.40;99.90;;;;;;4922852;28;20106;-75
2023/12/11 00:37:09;;;;;;;15.05;8.02;;;9.40;99.90;;;;;;4921630;28;20559;-75
2023/12/11 00:39:36;;;;;;;25.63;10.07;;;9.50;99.90;;;;;;4928567;28;20046;-75
2023/12/11 00:42:03;;;;;;;15.38;8.60;;;9.50;99.90;;;;;;4909277;28;20058;-75
2023/12/11 00:44:30;;;;;;;22.90;9.40;;;9.50;99.90;;;;;;4895370;29;20051;-75
2023/12/11 00:46:57;;;;;;;15.85;8.85;;;9.40;99.90;;;;;;4919739;28;20079;-73
2023/12/11 00:49:24;;;;;;;16.98;9.57;;;9.30;99.90;;;;;;4895353;29;20514;-74
2023/12/11 00:51:54;;;;;;;16.50;9.18;;;9.30;99.90;;;;;;4916789;28;20054;-74
2023/12/11 00:54:21;;;;;;;24.35;10.90;;;9.30;99.90;;;;;;4914672;28;20055;-74
2023/12/11 00:56:48;;;;;;;22.75;10.13;;;9.40;99.90;;;;;;4918724;28;20046;-76
2023/12/11 00:59:15;;;;;;;21.25;9.80;;;9.30;99.90;;;;;;4915929;28;20075;-76
2023/12/11 01:01:42;;;;;;;18.58;10.20;;;9.30;99.90;;;;;;4913358;29;20107;-75
2023/12/11 01:04:11;;;;;;;20.15;9.98;;;9.20;99.90;;;;;;4909397;28;20043;-74
2023/12/11 01:06:39;;;;;;;23.38;10.07;;;9.20;99.90;;;;;;4911873;29;20055;-74
2023/12/11 01:09:06;;;;;;;24.33;9.70;;;9.20;99.90;;;;;;4921409;28;20425;-74
2023/12/11 01:11:33;;;;;;;22.63;9.50;;;9.10;99.90;;;;;;4936232;28;20114;-75
2023/12/11 01:14:00;;;;;;;17.48;8.35;;;9.10;99.90;;;;;;4900073;28;20285;-73
2023/12/11 01:16:27;;;;;;;22.05;9.07;;;9.10;99.90;;;;;;4916864;29;20051;-76
2023/12/11 01:18:54;;;;;;;28.60;9.52;;;9.20;99.90;;;;;;4921079;28;20047;-75
2023/12/11 01:21:21;;;;;;;20.40;8.10;;;9.20;99.90;;;;;;4894818;28;20541;-76
2023/12/11 01:23:48;;;;;;;19.65;8.75;;;9.20;99.90;;;;;;4929031;28;20063;-75
2023/12/11 01:26:15;;;;;;;22.95;7.95;;;9.20;99.90;;;;;;4903238;28;20058;-75
2023/12/11 01:28:42;;;;;;;21.80;8.43;;;9.20;99.90;;;;;;4923841;29;20039;-76
2023/12/11 01:31:09;;;;;;;16.75;7.90;;;9.20;99.90;;;;;;4913871;28;20119;-75
2023/12/11 01:33:36;;;;;;;25.98;9.18;;;9.20;99.90;;;;;;4926559;28;20202;-76
2023/12/11 01:36:04;;;;;;;18.10;7.80;;;9.20;99.90;;;;;;4920192;28;20493;-75
2023/12/11 01:38:31;;;;;;;22.90;10.18;;;9.30;99.90;;;;;;4925587;29;20078;-77
2023/12/11 01:40:58;;;;;;;23.92;9.13;;;9.30;99.90;;;;;;4917319;28;20039;-75
2023/12/11 01:43:25;;;;;;;25.38;9.68;;;9.20;99.90;;;;;;4904236;28;20087;-75
2023/12/11 01:46:04;;;;;;;28.05;12.13;;;9.20;99.90;;;;;;4920519;29;20057;-76
2023/12/11 01:48:32;;;;;;;27.10;10.80;;;9.30;99.90;;;;;;4920632;29;20163;-75
2023/12/11 01:50:59;;;;;;;21.17;9.90;;;9.30;99.90;;;;;;4938547;28;20047;-75
2023/12/11 01:53:27;;;;;;;17.48;8.90;;;9.30;99.90;;;;;;4936359;28;20430;-75
2023/12/11 01:55:55;;;;;;;19.58;9.27;;;9.30;99.90;;;;;;4900473;28;20053;-76
2023/12/11 01:58:22;;;;;;;20.15;9.65;;;9.20;99.90;;;;;;4920947;28;20792;-76
2023/12/11 02:00:49;;;;;;;31.60;9.70;;;9.20;99.90;;;;;;4920791;28;20094;-76
2023/12/11 02:03:16;;;;;;;33.75;9.48;;;9.10;99.90;;;;;;4904711;28;20482;-76
2023/12/11 02:05:44;;;;;;;32.05;9.65;;;9.10;99.90;;;;;;4896420;29;20665;-76
2023/12/11 02:08:11;;;;;;;29.23;10.52;;;9.20;99.90;;;;;;4922508;28;20109;-75
2023/12/11 02:10:40;;;;;;;27.42;10.55;;;9.10;99.90;;;;;;4943580;28;20047;-76
2023/12/11 02:13:10;;;;;;;35.28;11.27;;;9.10;99.90;;;;;;4904122;28;20106;-76
2023/12/11 02:15:42;;;;;;;32.08;10.85;;;9.20;99.90;;;;;;4928079;28;20048;-76
2023/12/11 02:18:11;;;;;;;30.40;11.50;;;9.20;99.90;;;;;;4914966;28;20085;-76
2023/12/11 02:20:40;;;;;;;28.35;11.15;;;9.20;99.90;;;;;;4911465;29;20036;-76
2023/12/11 02:23:27;;;;;;;24.70;9.82;;;9.20;99.90;;;;;;4915566;28;20050;-76
2023/12/11 02:26:21;;;;;;;23.38;10.50;;;9.20;99.90;;;;;;4933988;28;20103;-76
2023/12/11 02:28:48;;;;;;;20.80;11.00;;;9.10;99.90;;;;;;4904929;29;20043;-76
2023/12/11 02:31:15;;;;;;;32.38;11.40;;;9.10;99.90;;;;;;4920142;28;20573;-75
2023/12/11 02:33:42;;;;;;;41.22;12.75;;;9.10;99.90;;;;;;4918541;28;20044;-77
2023/12/11 02:36:09;;;;;;;19.88;10.60;;;9.00;99.90;;;;;;4918400;28;20043;-74
2023/12/11 02:38:39;;;;;;;27.88;11.38;;;9.00;99.90;;;;;;4918319;29;20051;-77
2023/12/11 02:41:06;;;;;;;20.98;11.32;;;9.10;99.90;;;;;;4900709;28;20148;-74
2023/12/11 02:43:34;;;;;;;34.33;12.70;;;9.10;99.90;;;;;;4905612;28;20047;-75
2023/12/11 02:46:02;;;;;;;33.70;14.65;;;9.00;99.90;;;;;;4922981;28;20466;-76
2023/12/11 02:48:30;;;;;;;34.80;13.10;;;9.00;99.90;;;;;;4918363;28;20059;-75
2023/12/11 02:50:57;;;;;;;27.67;11.77;;;8.90;99.90;;;;;;4938175;28;20142;-76
2023/12/11 02:53:24;;;;;;;36.85;13.52;;;8.90;99.90;;;;;;4903613;28;20056;-75
2023/12/11 02:55:51;;;;;;;22.35;11.00;;;8.90;99.90;;;;;;4898159;28;20054;-77
2023/12/11 02:58:18;;;;;;;31.80;11.63;;;8.80;99.90;;;;;;4921074;28;20069;-74
2023/12/11 03:00:45;;;;;;;37.08;11.25;;;8.80;99.90;;;;;;4898728;29;20048;-76
2023/12/11 03:03:12;;;;;;;38.35;11.90;;;8.80;99.90;;;;;;4904160;28;20435;-76
2023/12/11 03:05:39;;;;;;;32.08;9.77;;;8.90;99.90;;;;;;4921781;28;20111;-74
2023/12/11 03:08:06;;;;;;;37.90;8.77;;;8.90;99.90;;;;;;4905801;28;20047;-72
2023/12/11 03:10:33;;;;;;;37.80;8.48;;;8.80;99.90;;;;;;4922849;28;21272;-73
2023/12/11 03:13:00;;;;;;;25.85;7.03;;;8.70;99.90;;;;;;4897787;28;20143;-72
2023/12/11 03:15:29;;;;;;;37.45;9.38;;;8.60;99.90;;;;;;4927347;28;20115;-72
2023/12/11 03:17:56;;;;;;;43.22;10.73;;;8.60;99.90;;;;;;4918719;28;20094;-71
2023/12/11 03:20:23;;;;;;;30.73;7.55;;;8.60;99.90;;;;;;4915367;28;20048;-73
2023/12/11 03:22:50;;;;;;;36.85;8.15;;;8.60;99.90;;;;;;4914896;29;20043;-72
2023/12/11 03:25:17;;;;;;;34.75;7.38;;;8.50;99.90;;;;;;4912211;28;20055;-73
2023/12/11 03:27:44;;;;;;;36.30;7.85;;;8.50;99.90;;;;;;4918471;29;20651;-72
2023/12/11 03:30:11;;;;;;;45.95;9.57;;;8.50;99.90;;;;;;4916476;28;20055;-73
2023/12/11 03:32:39;;;;;;;47.78;8.50;;;8.50;99.90;;;;;;4915057;28;20085;-72
2023/12/11 03:35:06;;;;;;;31.08;9.60;;;8.50;99.90;;;;;;4917999;28;20047;-74
2023/12/11 03:37:33;;;;;;;43.63;9.18;;;8.60;99.90;;;;;;4913397;28;20047;-73
2023/12/11 03:40:00;;;;;;;33.10;8.20;;;8.60;99.90;;;;;;4912107;28;20040;-71
2023/12/11 03:42:27;;;;;;;35.08;9.68;;;8.60;99.90;;;;;;4892538;28;20047;-72
2023/12/11 03:44:54;;;;;;;28.85;9.68;;;8.70;99.90;;;;;;4921211;28;20659;-72
2023/12/11 03:47:24;;;;;;;29.05;10.38;;;8.80;99.90;;;;;;4907110;28;20051;-71
2023/12/11 03:49:51;;;;;;;36.17;10.07;;;8.90;99.90;;;;;;4912611;28;20044;-71
2023/12/11 03:52:18;;;;;;;39.90;9.82;;;8.90;99.90;;;;;;4930766;28;20455;-71
2023/12/11 03:54:46;;;;;;;28.77;11.18;;;8.90;99.90;;;;;;4915595;29;20058;-72
2023/12/11 03:57:13;;;;;;;28.52;9.75;;;8.90;99.90;;;;;;4928579;28;20498;-70
2023/12/11 03:59:41;;;;;;;32.90;12.18;;;8.90;99.90;;;;;;4933247;28;20049;-73
2023/12/11 04:02:08;;;;;;;31.65;11.32;;;8.90;99.90;;;;;;4903173;28;20043;-72
2023/12/11 04:04:37;;;;;;;29.95;11.40;;;9.00;99.90;;;;;;4932311;28;20066;-72
2023/12/11 04:07:04;;;;;;;38.42;13.13;;;9.00;99.90;;;;;;4915561;28;20567;-71
2023/12/11 04:09:31;;;;;;;35.60;12.13;;;9.10;99.90;;;;;;4916102;28;20761;-72
2023/12/11 04:11:58;;;;;;;33.15;14.23;;;9.20;99.90;;;;;;4917722;28;20059;-71
2023/12/11 04:14:26;;;;;;;34.08;14.13;;;9.10;99.90;;;;;;4897843;28;20056;-70
2023/12/11 04:16:53;;;;;;;37.08;13.40;;;9.20;99.90;;;;;;4908407;29;20051;-71
2023/12/11 04:19:20;;;;;;;28.52;14.25;;;9.20;99.90;;;;;;4914054;28;20105;-71
2023/12/11 04:21:48;;;;;;;31.27;13.60;;;9.20;99.90;;;;;;4915061;29;20102;-72
2023/12/11 04:24:15;;;;;;;24.27;14.40;;;9.20;99.90;;;;;;4907992;28;20065;-71
2023/12/11 04:26:42;;;;;;;41.55;15.73;;;9.30;99.90;;;;;;4929148;28;20126;-71
2023/12/11 04:29:08;;;;;;;25.92;14.57;;;9.40;99.90;;;;;;4929387;28;20043;-73
2023/12/11 04:31:35;;;;;;;37.92;17.63;;;9.50;99.90;;;;;;4915770;28;20054;-72
2023/12/11 04:34:03;;;;;;;34.40;14.35;;;9.40;99.90;;;;;;4907797;28;20057;-71
2023/12/11 04:36:30;;;;;;;23.48;13.63;;;9.40;99.90;;;;;;4926055;28;20052;-72
2023/12/11 04:38:57;;;;;;;22.30;14.88;;;9.40;99.90;;;;;;4918845;28;20046;-72
2023/12/11 04:41:24;;;;;;;35.20;15.63;;;9.40;99.90;;;;;;4926936;28;20231;-71
2023/12/11 04:43:51;;;;;;;30.55;14.75;;;9.40;99.90;;;;;;4930256;28;20058;-72
2023/12/11 04:46:18;;;;;;;27.70;14.57;;;9.40;99.90;;;;;;4916487;28;20041;-73
2023/12/11 04:48:45;;;;;;;33.92;15.32;;;9.40;99.90;;;;;;4912084;28;20162;-73
2023/12/11 04:51:12;;;;;;;22.23;13.85;;;9.40;99.90;;;;;;4915505;28;20078;-71
2023/12/11 04:53:39;;;;;;;34.22;14.98;;;9.40;99.90;;;;;;4914877;28;20817;-73
2023/12/11 04:56:07;;;;;;;23.75;15.43;;;9.40;99.90;;;;;;4913384;28;20043;-72
2023/12/11 04:58:34;;;;;;;32.67;15.07;;;9.40;99.90;;;;;;4913300;28;20081;-72
2023/12/11 05:01:02;;;;;;;37.80;16.83;;;9.40;99.90;;;;;;4917930;28;20454;-72
2023/12/11 05:03:29;;;;;;;24.27;14.82;;;9.30;99.90;;;;;;4897529;28;20070;-73
2023/12/11 05:05:56;;;;;;;23.73;13.77;;;9.40;99.90;;;;;;4921015;28;20462;-73
2023/12/11 05:08:23;;;;;;;28.75;13.93;;;9.40;99.90;;;;;;4910175;28;20051;-75
2023/12/11 05:10:55;;;;;;;29.38;13.77;;;9.40;99.90;;;;;;4933509;28;20075;-72
2023/12/11 05:13:22;;;;;;;30.30;13.48;;;9.40;99.90;;;;;;4898403;28;20059;-73
2023/12/11 05:15:49;;;;;;;28.50;12.55;;;9.40;99.90;;;;;;4926035;28;20111;-73
2023/12/11 05:18:16;;;;;;;23.15;12.95;;;9.30;99.90;;;;;;4914137;28;20035;-73
2023/12/11 05:20:43;;;;;;;26.63;12.23;;;9.30;99.90;;;;;;4931205;28;20051;-72
2023/12/11 05:23:10;;;;;;;28.38;12.55;;;9.30;99.90;;;;;;4914976;28;20055;-71
2023/12/11 05:25:37;;;;;;;28.63;12.77;;;9.30;99.90;;;;;;4904670;28;20538;-72
2023/12/11 05:28:04;;;;;;;23.75;11.65;;;9.20;99.90;;;;;;4916633;28;20126;-72
2023/12/11 05:30:31;;;;;;;31.55;11.20;;;9.10;99.90;;;;;;4925749;28;20715;-72
2023/12/11 05:32:59;;;;;;;22.65;11.13;;;9.00;99.90;;;;;;4915418;28;20106;-72
2023/12/11 05:35:26;;;;;;;25.58;12.07;;;8.90;99.90;;;;;;4914858;28;20131;-72
2023/12/11 05:37:56;;;;;;;19.80;12.05;;;9.00;99.90;;;;;;4910699;28;20048;-72
2023/12/11 05:40:25;;;;;;;27.13;11.75;;;8.90;99.90;;;;;;4915602;28;20056;-73
2023/12/11 05:42:52;;;;;;;31.33;12.48;;;8.90;99.90;;;;;;4914197;28;20454;-73
2023/12/11 05:45:23;;;;;;;24.45;11.98;;;9.00;99.90;;;;;;4898127;28;20682;-73
2023/12/11 05:47:50;;;;;;;23.40;11.70;;;9.00;99.90;;;;;;4898834;28;20130;-72
2023/12/11 05:50:17;;;;;;;30.63;13.27;;;9.00;99.90;;;;;;4908280;28;20043;-74
2023/12/11 05:52:44;;;;;;;28.02;12.52;;;9.00;99.90;;;;;;4930554;28;20459;-73
2023/12/11 05:55:11;;;;;;;26.33;13.75;;;9.00;99.90;;;;;;4914623;28;20055;-73
2023/12/11 05:57:38;;;;;;;32.50;13.40;;;9.10;99.90;;;;;;4913190;28;20159;-73
2023/12/11 06:00:11;;;;;;;22.27;13.52;;;9.10;99.90;;;;;;4919144;28;20039;-74
2023/12/11 06:02:39;;;;;;;32.22;13.63;;;9.10;99.90;;;;;;4898530;28;20134;-74
2023/12/11 06:05:08;;;;;;;26.48;12.95;;;9.10;99.90;;;;;;4930418;28;20556;-74
2023/12/11 06:07:35;;;;;;;22.58;12.43;;;9.10;99.90;;;;;;4913383;28;20047;-73
2023/12/11 06:10:03;;;;;;;33.33;13.90;;;9.10;99.90;;;;;;4924061;28;20058;-74
2023/12/11 06:12:30;;;;;;;30.10;13.48;;;9.20;99.90;;;;;;4918700;28;20118;-72
2023/12/11 06:14:57;;;;;;;25.13;11.38;;;9.10;99.90;;;;;;4905431;28;20562;-74
2023/12/11 06:17:24;;;;;;;25.02;10.15;;;9.10;99.90;;;;;;4908471;28;20868;-72
2023/12/11 06:19:51;;;;;;;15.52;8.60;;;9.00;99.90;;;;;;4922809;28;20130;-71
2023/12/11 06:22:18;;;;;;;21.95;8.15;;;8.80;99.90;;;;;;4915367;28;20446;-73
2023/12/11 06:24:45;;;;;;;20.75;9.07;;;8.70;99.90;;;;;;4916510;28;20043;-72
2023/12/11 06:27:13;;;;;;;17.38;7.05;;;8.60;99.90;;;;;;4904403;28;20043;-72
2023/12/11 06:29:40;;;;;;;21.83;6.93;;;8.50;99.90;;;;;;4913048;28;20250;-72
2023/12/11 06:32:08;;;;;;;27.33;9.48;;;8.50;99.90;;;;;;4919937;28;20133;-73
2023/12/11 06:34:35;;;;;;;12.68;6.25;;;8.40;99.90;;;;;;4917525;28;20051;-71
2023/12/11 06:37:03;;;;;;;30.55;7.80;;;8.40;99.90;;;;;;4933210;28;20059;-73
2023/12/11 06:39:31;;;;;;;24.33;6.32;;;8.30;99.90;;;;;;4911685;28;20047;-72
2023/12/11 06:42:00;;;;;;;22.40;4.68;;;8.30;99.90;;;;;;4899675;28;20044;-71
2023/12/11 06:44:28;;;;;;;22.70;5.25;;;8.30;99.90;;;;;;4892750;28;20087;-72
2023/12/11 06:46:56;;;;;;;23.23;4.35;;;8.30;99.90;;;;;;4910673;28;20514;-73
2023/12/11 06:49:23;;;;;;;21.77;5.22;;;8.30;99.90;;;;;;4906520;28;20043;-72
2023/12/11 06:51:52;;;;;;;19.85;4.70;;;8.40;99.90;;;;;;4898546;28;20043;-73
2023/12/11 06:54:20;;;;;;;19.95;6.38;;;8.40;99.90;;;;;;4912816;28;20050;-68
2023/12/11 06:56:47;;;;;;;10.82;4.53;;;8.40;99.90;;;;;;4909772;28;20047;-69
2023/12/11 06:59:14;;;;;;;9.10;3.88;;;8.40;99.90;;;;;;4928751;28;20042;-71
2023/12/11 07:01:41;;;;;;;9.48;4.30;;;8.40;99.90;;;;;;4909597;28;20502;-71
2023/12/11 07:04:08;;;;;;;10.45;4.53;;;8.30;99.90;;;;;;4914939;28;20063;-70
2023/12/11 07:06:37;;;;;;;14.88;6.97;;;8.30;99.90;;;;;;4926540;28;20129;-70
2023/12/11 07:09:04;;;;;;;12.63;4.57;;;8.30;99.90;;;;;;4930978;28;20124;-69
2023/12/11 07:11:34;;;;;;;11.20;4.30;;;8.30;99.90;;;;;;4927660;28;20043;-71
2023/12/11 07:14:01;;;;;;;9.95;4.47;;;8.30;99.90;;;;;;4914712;28;20127;-71
2023/12/11 07:16:28;;;;;;;14.02;4.95;;;8.30;99.90;;;;;;4928797;28;20051;-71
2023/12/11 07:18:57;;;;;;;12.27;4.45;;;8.30;99.90;;;;;;4903874;28;20051;-71
2023/12/11 07:21:24;;;;;;;16.48;4.95;;;8.30;99.90;;;;;;4896397;28;20061;-71
2023/12/11 07:23:51;;;;;;;16.58;5.45;;;8.30;99.90;;;;;;4910241;28;20046;-69
2023/12/11 07:26:18;;;;;;;13.55;5.07;;;8.30;99.90;;;;;;4930745;28;20047;-72
2023/12/11 07:28:45;;;;;;;12.95;5.68;;;8.30;99.90;;;;;;4907197;28;20965;-69
2023/12/11 07:31:12;;;;;;;7.35;4.88;;;8.30;99.90;;;;;;4928330;28;20047;-71
2023/12/11 07:33:39;;;;;;;15.95;5.88;;;8.40;99.90;;;;;;4912994;28;20055;-71
2023/12/11 07:36:08;;;;;;;10.18;5.70;;;8.40;99.90;;;;;;4929180;28;20078;-71
2023/12/11 07:38:36;;;;;;;15.02;6.82;;;8.50;99.90;;;;;;4910508;28;20047;-70
2023/12/11 07:41:06;;;;;;;14.23;6.50;;;8.50;99.90;;;;;;4915273;28;20061;-70
2023/12/11 07:43:35;;;;;;;18.10;7.50;;;8.60;99.90;;;;;;4920714;28;20055;-70
2023/12/11 07:46:03;;;;;;;14.40;8.13;;;8.60;99.90;;;;;;4911885;28;20047;-70
2023/12/11 07:48:30;;;;;;;12.98;7.53;;;8.70;99.90;;;;;;4912294;28;20139;-70
2023/12/11 07:50:58;;;;;;;14.57;7.93;;;8.70;99.90;;;;;;4910930;28;20138;-71
2023/12/11 07:53:26;;;;;;;13.68;8.02;;;8.80;99.90;;;;;;4898695;28;20047;-71
2023/12/11 07:55:52;;;;;;;21.33;8.45;;;8.70;99.90;;;;;;4911162;28;20052;-70
2023/12/11 07:58:19;;;;;;;16.65;12.77;;;8.70;99.90;;;;;;4900299;28;20061;-73
2023/12/11 08:00:46;;;;;;;16.67;10.98;;;8.80;99.90;;;;;;4911847;28;20186;-75
2023/12/11 08:03:19;;;;;;;18.80;8.93;;;8.80;99.90;;;;;;4919986;28;20129;-76
2023/12/11 08:05:56;;;;;;;17.58;8.85;;;8.80;99.90;;;;;;4915907;28;20055;-73
2023/12/11 08:08:23;;;;;;;17.88;9.48;;;8.80;99.90;;;;;;4905249;28;20126;-73
2023/12/11 08:10:50;;;;;;;21.85;8.85;;;8.90;99.90;;;;;;4930545;28;20502;-74
2023/12/11 08:13:17;;;;;;;25.88;13.55;;;8.90;99.90;;;;;;4906273;28;20047;-73
2023/12/11 08:15:45;;;;;;;21.15;11.68;;;8.90;99.90;;;;;;4913464;28;20055;-74
2023/12/11 08:18:12;;;;;;;18.92;11.85;;;8.80;99.90;;;;;;4898602;28;20039;-73
2023/12/11 08:20:42;;;;;;;15.65;11.32;;;8.90;99.90;;;;;;4912326;28;20544;-73
2023/12/11 08:23:13;;;;;;;22.60;12.10;;;8.90;99.90;;;;;;4897536;28;20049;-74
2023/12/11 08:25:44;;;;;;;21.98;10.95;;;8.90;99.90;;;;;;4914946;28;20680;-73
2023/12/11 08:28:11;;;;;;;24.35;11.20;;;8.90;99.90;;;;;;4936285;28;20054;-73
2023/12/11 08:30:38;;;;;;;25.50;11.27;;;8.90;99.90;;;;;;4908543;28;20106;-73
2023/12/11 08:33:05;;;;;;;22.45;10.98;;;8.90;99.90;;;;;;4920536;28;20394;-73
2023/12/11 08:35:32;;;;;;;25.75;10.82;;;8.90;99.90;;;;;;4928969;28;20046;-74
2023/12/11 08:37:59;;;;;;;15.38;12.10;;;9.00;99.90;;;;;;4927118;28;20055;-74
2023/12/11 08:40:26;;;;;;;24.48;11.05;;;9.00;99.90;;;;;;4918493;28;20059;-73
2023/12/11 08:42:53;;;;;;;18.73;12.07;;;9.10;99.90;;;;;;4917107;28;20781;-74
2023/12/11 08:45:23;;;;;;;16.27;12.07;;;9.10;99.90;;;;;;4924780;28;20049;-73
2023/12/11 08:47:51;;;;;;;29.67;15.52;;;9.10;99.90;;;;;;4902977;28;20057;-73
2023/12/11 08:50:18;;;;;;;23.38;15.38;;;9.10;99.90;;;;;;4925551;28;20097;-73
2023/12/11 08:52:45;;;;;;;22.33;13.88;;;9.10;99.90;;;;;;4917625;28;20127;-73
2023/12/11 08:55:12;;;;;;;20.10;16.73;;;9.10;99.90;;;;;;4911697;28;20035;-73
2023/12/11 08:57:43;;;;;;;19.38;14.30;;;9.10;99.90;;;;;;4908860;28;20042;-73
2023/12/11 09:00:13;;;;;;;16.17;10.95;;;9.00;99.90;;;;;;4911469;28;20062;-73
2023/12/11 09:02:40;;;;;;;20.63;10.48;;;8.90;99.90;;;;;;4928283;28;20067;-74
2023/12/11 09:05:08;;;;;;;20.00;9.80;;;8.80;99.90;;;;;;4930420;28;20047;-75
2023/12/11 09:07:35;;;;;;;17.50;8.25;;;8.70;99.90;;;;;;4930313;28;20454;-74
2023/12/11 09:10:03;;;;;;;21.08;8.60;;;8.70;99.90;;;;;;4921753;28;20031;-74
2023/12/11 09:12:31;;;;;;;23.75;7.53;;;8.70;99.90;;;;;;4906871;28;20222;-74
2023/12/11 09:15:00;;;;;;;19.30;8.60;;;8.60;99.90;;;;;;4933428;28;20036;-74
2023/12/11 09:17:28;;;;;;;20.45;7.55;;;8.60;99.90;;;;;;4921877;28;20082;-73
2023/12/11 09:20:04;;;;;;;13.73;7.68;;;8.60;99.90;;;;;;4907856;28;20537;-73
2023/12/11 09:22:35;;;;;;;19.67;7.70;;;8.60;99.90;;;;;;4937751;28;20086;-74
2023/12/11 09:25:02;;;;;;;15.05;6.78;;;8.70;99.90;;;;;;4905589;28;20039;-73
2023/12/11 09:27:30;;;;;;;15.43;7.35;;;8.70;99.90;;;;;;4920142;28;20039;-73
2023/12/11 09:29:58;;;;;;;17.55;7.50;;;8.80;99.90;;;;;;4918517;28;20082;-74
2023/12/11 09:32:27;;;;;;;13.93;8.20;;;8.80;99.90;;;;;;4935576;28;20062;-73
2023/12/11 09:34:55;;;;;;;18.90;8.77;;;8.80;99.90;;;;;;4916849;28;20106;-74
2023/12/11 09:37:22;;;;;;;17.52;8.85;;;8.90;99.90;;;;;;4930480;28;20121;-74
2023/12/11 09:39:49;;;;;;;16.52;9.20;;;8.90;99.90;;;;;;4917140;28;20051;-72
2023/12/11 09:42:17;;;;;;;14.63;9.80;;;9.00;99.90;;;;;;4905490;28;20141;-73
2023/12/11 09:44:46;;;;;;;13.02;10.23;;;9.00;99.90;;;;;;4932473;28;20083;-74
2023/12/11 09:47:18;;;;;;;15.68;10.02;;;9.00;99.90;;;;;;4910154;28;20432;-72
2023/12/11 09:49:48;;;;;;;11.52;10.52;;;9.00;99.90;;;;;;4940355;28;20095;-72
2023/12/11 09:52:16;;;;;;;9.93;9.23;;;9.00;99.90;;;;;;4928677;28;20043;-73
2023/12/11 09:54:43;;;;;;;11.98;9.60;;;9.10;99.90;;;;;;4924523;28;20051;-74
2023/12/11 09:57:15;;;;;;;14.25;9.55;;;9.10;99.90;;;;;;4920213;28;20505;-75
2023/12/11 09:59:50;;;;;;;13.43;9.75;;;9.10;99.90;;;;;;4922782;28;20050;-76
2023/12/11 10:02:18;;;;;;;14.05;9.65;;;9.10;99.90;;;;;;4934917;28;20142;-73
2023/12/11 10:05:11;;;;;;;13.18;9.85;;;9.10;99.90;;;;;;4919862;28;20039;-73
2023/12/11 10:07:42;;;;;;;11.15;9.73;;;9.10;99.90;;;;;;4920322;28;20133;-73
2023/12/11 10:10:25;;;;;;;20.42;10.35;;;9.10;99.90;;;;;;4918263;28;20098;-71
2023/12/11 10:12:56;;;;;;;12.30;10.15;;;9.10;99.90;;;;;;4913272;28;21351;-73
2023/12/11 10:15:25;;;;;;;13.73;9.07;;;9.10;99.90;;;;;;4905378;28;20043;-73
2023/12/11 10:18:04;;;;;;;15.60;8.60;;;9.10;99.90;;;;;;4918505;28;20945;-73
2023/12/11 10:20:33;;;;;;;10.57;7.22;;;8.90;99.90;;;;;;4911372;28;20055;-73
2023/12/11 10:23:27;;;;;;;11.52;5.70;;;8.80;99.90;;;;;;4927928;28;20119;-73
2023/12/11 10:26:05;;;;;;;9.95;5.30;;;8.80;99.90;;;;;;4916911;28;20044;-72
2023/12/11 10:28:32;;;;;;;14.07;4.90;;;8.70;99.90;;;;;;4918882;28;20150;-73
2023/12/11 10:31:02;;;;;;;7.78;5.13;;;8.70;99.90;;;;;;4905055;28;20070;-72
2023/12/11 10:33:33;;;;;;;11.35;4.47;;;8.60;99.90;;;;;;4924516;28;20056;-74
2023/12/11 10:36:13;;;;;;;11.90;5.18;;;8.60;99.90;;;;;;4914078;28;20047;-74
2023/12/11 10:38:40;;;;;;;8.90;4.50;;;8.60;99.90;;;;;;4915944;28;20130;-74
2023/12/11 10:41:07;;;;;;;13.95;4.30;;;8.50;99.90;;;;;;4923746;28;20078;-75
2023/12/11 10:43:42;;;;;;;14.75;5.30;;;8.50;99.90;;;;;;4922094;28;20047;-75
2023/12/11 10:46:30;;;;;;;12.13;5.00;;;8.50;99.90;;;;;;4902076;28;20661;-76
2023/12/11 10:48:58;;;;;;;17.50;6.90;;;8.50;99.90;;;;;;4931741;28;20043;-76
2023/12/11 10:51:27;;;;;;;17.25;5.55;;;8.50;99.90;;;;;;4916855;28;20522;-76
2023/12/11 10:53:54;;;;;;;16.30;4.95;;;8.50;99.90;;;;;;4929976;28;20066;-75
2023/12/11 10:56:23;;;;;;;19.85;6.45;;;8.50;99.90;;;;;;4929757;28;20039;-74
2023/12/11 10:58:51;;;;;;;16.77;6.60;;;8.50;99.90;;;;;;4919745;28;20055;-75
2023/12/11 11:01:18;;;;;;;16.48;5.88;;;8.50;99.90;;;;;;4913576;28;20054;-75
2023/12/11 11:03:46;;;;;;;15.65;6.95;;;8.50;99.90;;;;;;4903698;28;20043;-75
2023/12/11 11:06:13;;;;;;;15.77;6.22;;;8.50;99.90;;;;;;4919117;28;20039;-74
2023/12/11 11:08:54;;;;;;;20.42;7.55;;;8.50;99.90;;;;;;4917650;28;20134;-74
2023/12/11 11:11:27;;;;;;;15.25;5.55;;;8.50;99.90;;;;;;4919237;28;20042;-75
2023/12/11 11:14:15;;;;;;;13.68;6.57;;;8.50;99.90;;;;;;4929364;28;20173;-73
2023/12/11 11:16:54;;;;;;;19.55;6.38;;;8.50;99.90;;;;;;4914014;28;20604;-73
2023/12/11 11:19:27;;;;;;;15.50;8.10;;;8.50;99.90;;;;;;4934775;28;20055;-74
2023/12/11 11:22:20;;;;;;;15.75;7.93;;;8.50;99.90;;;;;;4919770;28;20048;-74
2023/12/11 11:25:32;;;;;;;20.13;8.40;;;8.50;99.90;;;;;;4913244;28;20129;-74
2023/12/11 11:28:00;;;;;;;12.25;6.47;;;8.50;99.90;;;;;;4933107;28;20479;-73
2023/12/11 11:30:44;;;;;;;14.10;8.55;;;8.40;99.90;;;;;;4898646;28;20054;-76
2023/12/11 11:33:11;;;;;;;16.05;8.55;;;8.40;99.90;;;;;;4906453;28;20097;-76
2023/12/11 11:35:45;;;;;;;17.38;9.05;;;8.40;99.90;;;;;;4927259;28;20518;-79
2023/12/11 11:38:13;;;;;;;15.20;9.13;;;8.40;99.90;;;;;;4918279;28;20073;-73
2023/12/11 11:40:40;;;;;;;19.38;10.48;;;8.40;99.90;;;;;;4912537;28;20051;-72
2023/12/11 11:43:11;;;;;;;17.77;7.45;;;8.40;99.90;;;;;;4905669;28;20047;-72
2023/12/11 11:45:38;;;;;;;15.63;7.97;;;8.50;99.90;;;;;;4924929;28;20090;-71
2023/12/11 11:48:06;;;;;;;20.00;11.05;;;8.40;99.90;;;;;;4903247;28;20050;-73
2023/12/11 11:50:35;;;;;;;26.45;11.50;;;8.40;99.90;;;;;;4917881;28;20047;-71
2023/12/11 11:53:13;;;;;;;14.23;9.15;;;8.40;99.90;;;;;;4919639;28;20082;-70
2023/12/11 11:55:43;;;;;;;13.20;8.57;;;8.40;99.90;;;;;;4902815;28;20082;-72
2023/12/11 11:58:12;;;;;;;27.60;9.45;;;8.40;99.90;;;;;;4915742;28;20054;-71
2023/12/11 12:00:40;;;;;;;15.00;9.65;;;8.40;99.90;;;;;;4928439;28;20044;-73
2023/12/11 12:03:11;;;;;;;19.30;11.07;;;8.40;99.90;;;;;;4914890;28;20035;-72
2023/12/11 12:05:55;;;;;;;24.95;11.35;;;8.40;99.90;;;;;;4897256;28;20044;-71
2023/12/11 12:08:23;;;;;;;26.33;13.63;;;8.40;99.90;;;;;;4920329;28;20051;-72
2023/12/11 12:10:50;;;;;;;25.30;14.48;;;8.40;99.90;;;;;;4933338;28;20126;-71
2023/12/11 12:13:19;;;;;;;20.38;12.18;;;8.50;99.90;;;;;;4921659;28;20125;-71
2023/12/11 12:15:49;;;;;;;21.13;10.93;;;8.40;99.90;;;;;;4916342;28;20217;-73
2023/12/11 12:18:16;;;;;;;23.60;10.90;;;8.40;99.90;;;;;;4905216;28;20074;-72
2023/12/11 12:21:03;;;;;;;17.85;10.07;;;8.40;99.90;;;;;;4918599;28;20051;-73
2023/12/11 12:23:30;;;;;;;17.15;9.98;;;8.40;99.90;;;;;;4908180;28;20044;-74
2023/12/11 12:26:01;;;;;;;20.45;9.25;;;8.40;99.90;;;;;;4897163;28;20551;-73
2023/12/11 12:28:28;;;;;;;25.40;10.25;;;8.40;99.90;;;;;;4927936;28;20050;-73
2023/12/11 12:30:56;;;;;;;12.77;6.80;;;8.40;99.90;;;;;;4891820;28;20621;-72
2023/12/11 12:33:23;;;;;;;18.85;8.77;;;8.40;99.90;;;;;;4918428;28;20695;-74
2023/12/11 12:35:54;;;;;;;17.48;7.15;;;8.40;99.90;;;;;;4915740;28;20044;-74
2023/12/11 12:38:22;;;;;;;16.98;7.45;;;8.40;99.90;;;;;;4935851;28;20043;-73
2023/12/11 12:40:53;;;;;;;15.77;7.38;;;8.40;99.90;;;;;;4918193;28;20044;-72
2023/12/11 12:43:20;;;;;;;18.92;8.80;;;8.40;99.90;;;;;;4935327;28;20047;-73
2023/12/11 12:46:01;;;;;;;18.25;8.57;;;8.40;99.90;;;;;;4906955;28;20087;-72
2023/12/11 12:48:28;;;;;;;11.77;7.53;;;8.30;99.90;;;;;;4921683;28;20053;-73
2023/12/11 12:51:09;;;;;;;15.30;8.80;;;8.30;99.90;;;;;;4908539;28;20044;-73